Time;durP1;ratioP1;P1;durP2;ratioP2;P2;SDS_P1;SDS_P2;PMS_P1;PMS_P2;Temp;Humidity;BMP_temperature;BMP_pressure;BME280_temperature;BME280_humidity;BME280_pressure;Samples;Min_cycle;Max_cycle;Signal;HPM_P1;HPM_P2
2021/11/24 00:00:17;;;;;;;1.85;1.75;;;;;;;8.26;69.49;101693.69;6242521;23;20008;-72
2021/11/24 00:02:43;;;;;;;1.67;1.58;;;;;;;8.21;68.94;101675.28;6241066;23;20008;-71
2021/11/24 00:05:08;;;;;;;1.70;1.60;;;;;;;8.23;68.66;101675.06;6215482;23;20068;-72
2021/11/24 00:07:34;;;;;;;2.10;2.00;;;;;;;8.15;69.18;101657.91;6215322;23;20386;-72
2021/11/24 00:09:59;;;;;;;1.30;1.20;;;;;;;8.26;68.82;101671.88;6243280;23;20107;-72
2021/11/24 00:12:27;;;;;;;1.35;1.27;;;;;;;8.15;69.36;101652.47;6244427;23;20058;-72
2021/11/24 00:14:53;;;;;;;2.72;2.63;;;;;;;8.19;69.46;101659.16;6215788;23;20423;-71
2021/11/24 00:17:18;;;;;;;1.95;1.85;;;;;;;8.13;69.30;101653.72;6243947;23;20039;-71
2021/11/24 00:19:46;;;;;;;1.92;1.85;;;;;;;8.18;69.16;101662.91;6243123;23;20004;-72
2021/11/24 00:22:15;;;;;;;1.90;1.67;;;;;;;8.12;68.36;101642.00;6190877;23;20027;-71
2021/11/24 00:24:40;;;;;;;1.13;1.13;;;;;;;8.18;69.37;101643.84;6242350;23;20078;-71
2021/11/24 00:27:08;;;;;;;1.05;1.05;;;;;;;8.21;68.67;101646.13;6244244;23;20418;-72
2021/11/24 00:29:34;;;;;;;1.23;1.23;;;;;;;8.30;68.74;101654.06;6237271;23;20004;-71
2021/11/24 00:31:59;;;;;;;1.17;1.17;;;;;;;8.31;69.30;101655.69;6244183;23;20015;-71
2021/11/24 00:34:34;;;;;;;1.40;1.40;;;;;;;8.33;68.58;101654.44;6185927;23;20381;-71
2021/11/24 00:37:03;;;;;;;1.23;1.23;;;;;;;8.35;68.51;101651.47;6243320;23;20008;-71
2021/11/24 00:39:34;;;;;;;3.40;3.20;;;;;;;8.36;68.75;101653.16;6240620;23;20004;-71
2021/11/24 00:42:02;;;;;;;6.10;5.88;;;;;;;8.18;69.08;101624.78;6243366;23;20060;-71
2021/11/24 00:44:30;;;;;;;8.27;7.57;;;;;;;8.14;68.40;101618.09;6241968;23;20004;-72
2021/11/24 00:46:55;;;;;;;8.95;8.25;;;;;;;8.14;68.56;101629.00;6215427;23;20019;-72
2021/11/24 00:49:23;;;;;;;10.00;8.95;;;;;;;8.02;68.20;101630.75;6241551;23;20007;-71
2021/11/24 00:51:50;;;;;;;8.82;7.93;;;;;;;7.95;68.21;101624.53;6213220;23;20035;-74
2021/11/24 00:54:18;;;;;;;6.07;5.57;;;;;;;7.85;68.53;101617.63;6216498;23;20500;-72
2021/11/24 00:56:46;;;;;;;4.30;4.10;;;;;;;7.83;68.49;101616.22;6240539;23;20008;-71
2021/11/24 00:59:12;;;;;;;4.30;4.07;;;;;;;7.86;69.22;101632.94;6242365;23;20007;-71
2021/11/24 01:01:37;;;;;;;3.95;3.65;;;;;;;7.84;69.02;101624.16;6243198;23;20079;-71
2021/11/24 01:04:03;;;;;;;3.42;3.22;;;;;;;7.83;69.30;101619.75;6237022;23;20017;-73
2021/11/24 01:06:34;;;;;;;2.90;2.70;;;;;;;7.89;68.92;101636.31;6213360;23;20480;-72
2021/11/24 01:08:59;;;;;;;4.47;4.07;;;;;;;7.92;68.61;101635.84;6241160;23;20004;-72
2021/11/24 01:11:27;;;;;;;4.22;3.92;;;;;;;7.81;68.59;101618.31;6241627;23;20335;-71
2021/11/24 01:13:55;;;;;;;4.20;3.90;;;;;;;7.77;68.74;101606.16;6238493;23;20008;-70
2021/11/24 01:16:25;;;;;;;3.83;3.63;;;;;;;7.97;69.55;101622.41;6242303;23;20006;-71
2021/11/24 01:18:50;;;;;;;4.05;3.78;;;;;;;7.89;69.24;101598.16;6209408;23;20025;-72
2021/11/24 01:21:18;;;;;;;4.30;2.75;;;;;;;8.02;68.93;101617.13;6210456;23;20093;-73
2021/11/24 01:23:45;;;;;;;2.28;2.17;;;;;;;8.01;68.89;101596.41;6211627;23;20008;-73
2021/11/24 01:26:11;;;;;;;2.10;2.00;;;;;;;8.02;69.02;101592.63;6210762;23;20008;-71
2021/11/24 01:28:37;;;;;;;1.75;1.65;;;;;;;8.13;69.13;101616.44;6211277;23;20007;-72
2021/11/24 01:31:02;;;;;;;2.13;2.03;;;;;;;8.03;68.29;101589.69;6213541;23;20001;-72
2021/11/24 01:33:35;;;;;;;2.03;1.83;;;;;;;8.13;68.75;101586.47;6207534;23;20454;-72
2021/11/24 01:36:05;;;;;;;2.00;1.90;;;;;;;8.12;68.36;101582.06;6186208;23;20008;-71
2021/11/24 01:38:31;;;;;;;2.40;2.20;;;;;;;8.19;68.86;101591.03;6211520;23;20011;-73
2021/11/24 01:40:59;;;;;;;1.92;1.83;;;;;;;8.07;68.91;101567.44;6210409;23;20017;-74
2021/11/24 01:43:27;;;;;;;1.50;1.40;;;;;;;8.10;68.44;101578.72;6213172;23;20011;-71
2021/11/24 01:45:52;;;;;;;1.60;1.50;;;;;;;8.20;69.00;101589.94;6210154;23;20540;-72
2021/11/24 01:48:20;;;;;;;2.35;2.15;;;;;;;8.12;69.12;101565.72;6213037;23;20004;-72
2021/11/24 01:50:45;;;;;;;1.95;1.80;;;;;;;8.15;69.14;101559.00;6212956;23;20683;-73
2021/11/24 01:53:11;;;;;;;1.35;1.33;;;;;;;8.21;68.93;101569.84;6211680;23;20004;-73
2021/11/24 01:55:37;;;;;;;1.23;1.23;;;;;;;8.17;68.96;101557.69;6208950;23;20008;-72
2021/11/24 01:58:03;;;;;;;1.35;1.25;;;;;;;8.25;69.05;101558.47;6211504;23;20028;-72
2021/11/24 02:00:31;;;;;;;1.60;1.50;;;;;;;8.29;68.85;101559.72;6209622;23;20015;-71
2021/11/24 02:03:54;;;;;;;;;;;;;;;;;;;;;
2021/11/24 02:06:20;;;;;;;2.85;2.00;;;;;;;8.29;68.59;101557.81;6192825;23;20104;-72
2021/11/24 02:09:37;;;;;;;1.40;1.40;;;;;;;8.31;69.05;101552.13;6211596;23;20027;-72
2021/11/24 02:12:13;;;;;;;;;;;;;;;;;;;;;
2021/11/24 02:14:40;;;;;;;1.58;1.52;;;;;;;8.24;68.96;101546.75;6209274;23;20103;-73
2021/11/24 02:17:31;;;;;;;2.15;2.05;;;;;;;8.21;69.27;101531.69;6217908;23;20031;-72
2021/11/24 02:23:42;;;;;;;1.10;1.10;;;;;;;8.15;68.75;101516.22;6088678;23;20089;-75
2021/11/24 02:26:17;;;;;;;0.95;0.95;;;;;;;8.13;68.89;101496.56;6169313;23;20040;-75
2021/11/24 02:28:55;;;;;;;1.43;1.43;;;;;;;8.25;69.00;101515.75;6217101;23;20603;-75
2021/11/24 02:31:24;;;;;;;1.50;1.40;;;;;;;8.33;68.88;101523.59;6170720;23;20077;-74
2021/11/24 02:34:00;;;;;;;1.98;1.88;;;;;;;8.32;68.94;101510.22;6217984;23;20008;-76
2021/11/24 02:36:27;;;;;;;1.70;1.60;;;;;;;8.35;68.77;101515.19;6220386;23;20079;-75
2021/11/24 02:38:59;;;;;;;2.20;2.10;;;;;;;8.27;69.15;101510.88;6195700;23;20011;-75
2021/11/24 02:41:36;;;;;;;2.45;2.30;;;;;;;8.31;69.09;101503.06;6221109;23;20327;-76
2021/11/24 02:44:24;;;;;;;2.65;2.45;;;;;;;8.35;68.96;101504.31;6246315;23;20000;-74
2021/11/24 02:47:22;;;;;;;3.40;3.20;;;;;;;8.19;68.34;101479.31;6220428;23;20008;-74
2021/11/24 02:50:05;;;;;;;3.13;3.03;;;;;;;8.26;69.17;101479.22;6209549;23;20015;-73
2021/11/24 02:53:09;;;;;;;2.85;2.75;;;;;;;8.26;68.86;101473.78;6223260;23;20030;-75
2021/11/24 02:55:45;;;;;;;;;;;;;;;;;;;;;
2021/11/24 02:58:14;;;;;;;1.92;1.83;;;;;;;8.26;69.19;101467.50;6246111;23;20079;-76
2021/11/24 03:01:05;;;;;;;2.08;1.98;;;;;;;8.40;68.96;101479.94;6194439;23;20032;-76
2021/11/24 03:17:43;;;;;;;2.13;1.92;;;;;;;8.34;69.02;101459.06;5909885;24;20555;-73
2021/11/24 03:20:29;;;;;;;;;;;;;;;;;;;;;
2021/11/24 03:23:03;;;;;;;3.67;3.47;;;;;;;8.26;69.02;101457.44;6039319;23;20358;-74
2021/11/24 03:25:32;;;;;;;5.03;4.82;;;;;;;8.10;69.17;101420.69;6092847;23;20018;-73
2021/11/24 03:27:59;;;;;;;5.25;4.95;;;;;;;8.21;69.01;101460.84;6195093;23;20091;-75
2021/11/24 03:30:29;;;;;;;4.18;3.88;;;;;;;8.21;69.35;101449.94;6192201;23;20129;-75
2021/11/24 03:33:08;;;;;;;;;;;;;;;;;;;;;
2021/11/24 03:35:39;;;;;;;3.72;3.53;;;;;;;8.04;69.22;101421.59;6220567;23;20070;-75
2021/11/24 03:38:08;;;;;;;3.10;2.90;;;;;;;8.15;69.23;101429.03;6247013;23;20004;-73
2021/11/24 03:40:35;;;;;;;2.28;2.17;;;;;;;8.24;69.63;101436.94;6218254;23;20457;-74
2021/11/24 03:43:01;;;;;;;2.67;2.58;;;;;;;8.27;69.33;101436.47;6246127;23;20012;-73
2021/11/24 03:45:31;;;;;;;2.40;2.30;;;;;;;8.15;69.51;101412.69;6218955;23;20012;-75
2021/11/24 03:48:07;;;;;;;3.78;3.67;;;;;;;8.24;69.44;101428.75;6220596;23;20004;-75
2021/11/24 03:50:33;;;;;;;4.70;4.40;;;;;;;8.29;68.99;101434.34;6217499;23;20008;-72
2021/11/24 03:53:03;;;;;;;4.90;4.60;;;;;;;8.24;69.25;101424.13;6194934;23;20075;-73
2021/11/24 03:55:29;;;;;;;3.95;3.75;;;;;;;8.19;69.01;101413.91;6220488;23;20000;-75
2021/11/24 03:58:02;;;;;;;3.80;3.60;;;;;;;8.19;68.96;101408.47;6193261;23;20015;-75
2021/11/24 04:01:06;;;;;;;;;;;;;;;;;;;;;
2021/11/24 04:03:35;;;;;;;2.92;2.72;;;;;;;8.09;68.90;101386.38;6219464;23;20087;-75
2021/11/24 04:06:03;;;;;;;3.22;3.13;;;;;;;8.20;69.46;101404.66;6218906;23;20012;-75
2021/11/24 04:08:31;;;;;;;4.43;4.22;;;;;;;8.19;69.52;101397.56;6218267;23;20331;-75
2021/11/24 04:11:02;;;;;;;3.70;3.60;;;;;;;8.26;69.39;101402.09;6243981;23;20004;-73
2021/11/24 04:14:02;;;;;;;3.60;3.50;;;;;;;8.33;69.10;101400.13;6220028;23;20008;-73
2021/11/24 04:20:04;;;;;;;;;;;;;;;;;;;;;
2021/11/24 04:27:18;;;;;;;;;;;;;;;;;;;;;
2021/11/24 04:31:33;;;;;;;;;;;;;;;;;;;;;
2021/11/24 04:33:41;;;;;;;4.97;4.68;;;;;;;8.28;69.37;101372.72;6097803;23;20021;-74
2021/11/24 04:40:24;;;;;;;4.00;3.80;;;;;;;8.36;69.67;101364.25;6124688;23;20014;-72
2021/11/24 04:42:52;;;;;;;3.42;3.22;;;;;;;8.25;69.21;101341.34;6130771;23;20006;-72
2021/11/24 04:45:25;;;;;;;4.10;3.80;;;;;;;8.30;68.61;101357.00;6214668;23;20012;-73
2021/11/24 04:48:00;;;;;;;5.50;5.20;;;;;;;8.39;69.00;101369.25;6258829;23;20050;-72
2021/11/24 04:50:59;;;;;;;;;;;;;;;;;;;;;
2021/11/24 04:53:25;;;;;;;5.00;4.70;;;;;;;8.24;68.69;101334.22;6241540;23;20060;-73
2021/11/24 04:55:51;;;;;;;3.75;3.42;;;;;;;8.31;68.86;101345.00;6220111;23;20442;-73
2021/11/24 04:58:22;;;;;;;4.32;4.07;;;;;;;8.39;68.73;101347.44;6194200;23;20039;-73
2021/11/24 05:00:48;;;;;;;2.78;2.67;;;;;;;8.34;68.99;101339.13;6224864;23;20427;-75
2021/11/24 05:03:20;;;;;;;4.07;3.78;;;;;;;8.32;68.99;101330.34;6251403;23;20050;-73
2021/11/24 05:06:02;;;;;;;6.28;5.45;;;;;;;8.34;68.81;101336.41;6224528;23;20022;-75
2021/11/24 05:08:34;;;;;;;6.13;5.72;;;;;;;8.36;69.23;101331.53;6177673;23;20026;-75
2021/11/24 05:11:28;;;;;;;5.30;5.03;;;;;;;8.40;69.19;101332.75;6225160;23;20008;-74
2021/11/24 05:14:06;;;;;;;4.88;4.68;;;;;;;8.31;68.91;101315.03;6222766;23;20012;-75
2021/11/24 05:16:34;;;;;;;6.47;6.07;;;;;;;8.49;68.98;101336.84;6252919;23;19992;-74
2021/11/24 05:18:59;;;;;;;6.57;6.18;;;;;;;8.45;69.22;101332.91;6225202;23;20051;-74
2021/11/24 05:21:36;;;;;;;8.00;7.40;;;;;;;8.37;69.06;101316.88;6224224;23;20004;-74
2021/11/24 05:24:03;;;;;;;6.07;5.68;;;;;;;8.48;69.34;101329.72;6199554;23;20012;-74
2021/11/24 05:26:30;;;;;;;5.43;5.18;;;;;;;8.44;69.43;101323.09;6172861;23;20066;-74
2021/11/24 05:28:56;;;;;;;8.13;7.53;;;;;;;8.38;68.93;101313.91;6218727;23;20036;-73
2021/11/24 05:31:30;;;;;;;7.70;7.13;;;;;;;8.48;69.16;101329.72;6191118;23;20099;-74
2021/11/24 05:34:03;;;;;;;6.85;6.55;;;;;;;8.34;69.52;101306.44;6243246;23;20071;-74
2021/11/24 05:36:30;;;;;;;7.25;6.75;;;;;;;8.41;69.11;101320.81;6193176;23;20000;-75
2021/11/24 05:38:58;;;;;;;8.18;7.60;;;;;;;8.38;69.35;101304.88;6242941;23;20000;-74
2021/11/24 05:41:23;;;;;;;7.03;6.63;;;;;;;8.46;69.53;101320.97;6191930;23;20012;-75
2021/11/24 05:43:52;;;;;;;8.43;7.65;;;;;;;8.37;69.39;101309.50;6191365;23;20004;-75
2021/11/24 05:46:43;;;;;;;9.10;8.48;;;;;;;8.35;69.23;101308.94;6168582;23;20008;-74
2021/11/24 05:49:11;;;;;;;9.27;8.38;;;;;;;8.36;69.00;101307.84;6217760;23;20008;-74
2021/11/24 05:51:45;;;;;;;9.35;8.32;;;;;;;8.41;69.52;101317.22;6244231;23;20016;-74
2021/11/24 05:54:11;;;;;;;9.07;8.38;;;;;;;8.30;69.37;101294.31;6244806;23;20007;-74
2021/11/24 05:56:40;;;;;;;9.15;8.25;;;;;;;8.41;69.41;101311.78;6215724;23;20046;-75
2021/11/24 05:59:16;;;;;;;11.88;9.38;;;;;;;8.37;69.45;101298.63;6216323;23;20315;-73
2021/11/24 06:01:45;;;;;;;11.40;10.27;;;;;;;8.34;69.64;101295.53;6246738;23;20008;-74
2021/11/24 06:04:11;;;;;;;10.85;9.75;;;;;;;8.29;69.68;101289.91;6228195;23;20004;-73
2021/11/24 06:06:37;;;;;;;9.48;8.75;;;;;;;8.32;69.12;101287.59;6204308;23;20062;-75
2021/11/24 06:09:10;;;;;;;6.93;6.53;;;;;;;8.36;70.02;101286.03;6257154;23;20008;-73
2021/11/24 06:11:46;;;;;;;;;;;;;;;;;;;;;
2021/11/24 06:14:27;;;;;;;6.65;6.25;;;;;;;8.41;69.71;101279.91;6258708;23;20015;-73
2021/11/24 06:16:57;;;;;;;9.98;8.98;;;;;;;8.34;69.61;101273.72;6218230;23;20003;-72
2021/11/24 06:19:23;;;;;;;9.68;8.77;;;;;;;8.39;69.94;101277.41;6218142;23;20043;-73
2021/11/24 06:21:59;;;;;;;8.55;7.75;;;;;;;8.42;69.36;101276.09;6194357;23;20008;-74
2021/11/24 06:24:27;;;;;;;9.90;8.93;;;;;;;8.37;69.44;101273.25;6217734;23;20012;-73
2021/11/24 06:26:54;;;;;;;10.70;9.73;;;;;;;8.40;70.26;101275.53;6194579;23;20046;-71
2021/11/24 06:29:20;;;;;;;9.20;8.45;;;;;;;8.36;69.76;101277.03;6214076;23;20004;-72
2021/11/24 06:31:49;;;;;;;10.40;9.40;;;;;;;8.49;69.39;101287.78;6217284;23;20027;-72
2021/11/24 06:34:17;;;;;;;10.52;9.45;;;;;;;8.40;69.75;101278.25;6219153;23;20008;-74
2021/11/24 06:36:43;;;;;;;8.00;7.30;;;;;;;8.37;69.73;101263.19;6221262;23;20079;-73
2021/11/24 06:39:11;;;;;;;8.98;8.18;;;;;;;8.47;69.62;101268.13;6221157;23;20004;-73
2021/11/24 06:41:37;;;;;;;8.38;7.57;;;;;;;8.46;70.08;101266.44;6242277;23;20012;-72
2021/11/24 06:44:03;;;;;;;9.73;7.40;;;;;;;8.39;70.07;101255.59;6243359;23;20036;-74
2021/11/24 06:46:29;;;;;;;7.03;6.55;;;;;;;8.46;69.68;101255.53;6214896;23;20066;-74
2021/11/24 06:48:54;;;;;;;7.13;6.43;;;;;;;8.44;69.62;101246.78;6218548;23;20008;-76
2021/11/24 06:51:25;;;;;;;9.85;8.55;;;;;;;8.51;70.20;101258.41;6216868;23;20004;-73
2021/11/24 06:54:23;;;;;;;9.05;8.25;;;;;;;8.34;69.71;101230.13;6217087;23;20007;-74
2021/11/24 06:56:51;;;;;;;9.07;8.38;;;;;;;8.44;70.66;101245.91;6109905;23;20147;-75
2021/11/24 06:59:23;;;;;;;9.25;8.40;;;;;;;8.30;69.65;101218.00;6215842;23;20008;-75
2021/11/24 07:02:16;;;;;;;;;;;;;;;;;;;;;
2021/11/24 07:11:45;;;;;;;8.40;7.70;;;;;;;8.36;70.22;101244.34;6160515;23;20378;-73
2021/11/24 07:14:11;;;;;;;8.20;7.60;;;;;;;8.42;69.81;101250.75;6219440;23;20046;-73
2021/11/24 07:17:04;;;;;;;7.55;7.05;;;;;;;8.49;70.60;101257.81;6245061;23;20023;-73
2021/11/24 07:19:35;;;;;;;14.57;11.15;;;;;;;8.43;70.24;101250.53;6191960;23;20090;-73
2021/11/24 07:22:00;;;;;;;12.88;10.45;;;;;;;8.44;70.25;101249.50;6220653;23;20012;-74
2021/11/24 07:24:29;;;;;;;15.60;12.82;;;;;;;8.47;70.50;101251.75;6247032;23;20030;-72
2021/11/24 07:26:55;;;;;;;15.50;12.40;;;;;;;8.36;70.43;101245.16;6170050;23;20008;-73
2021/11/24 07:29:30;;;;;;;12.88;11.13;;;;;;;8.46;70.19;101260.16;6190020;23;20019;-73
2021/11/24 07:31:56;;;;;;;13.05;11.45;;;;;;;8.36;70.21;101247.06;6244560;23;20004;-71
2021/11/24 07:34:21;;;;;;;15.07;12.27;;;;;;;8.42;69.73;101259.75;6244932;23;20098;-73
2021/11/24 07:36:47;;;;;;;13.40;12.00;;;;;;;8.29;69.99;101238.97;6218757;23;20023;-72
2021/11/24 07:39:36;;;;;;;11.38;10.32;;;;;;;8.35;70.38;101253.56;6245159;23;20343;-73
2021/11/24 07:42:54;;;;;;;11.82;10.73;;;;;;;8.35;70.97;101248.97;6199155;23;20509;-73
2021/11/24 07:45:23;;;;;;;12.57;11.38;;;;;;;8.25;70.88;101236.94;6201728;23;20083;-73
2021/11/24 07:47:51;;;;;;;11.15;9.55;;;;;;;8.21;70.94;101237.41;6217608;23;20008;-74
2021/11/24 07:50:20;;;;;;;11.07;9.98;;;;;;;8.32;70.83;101240.41;6216313;23;20031;-72
2021/11/24 07:52:51;;;;;;;17.33;12.05;;;;;;;8.25;70.24;101231.50;6190032;23;20069;-72
2021/11/24 07:55:22;;;;;;;18.40;12.43;;;;;;;8.24;71.20;101229.84;6193459;23;20008;-72
2021/11/24 07:58:16;;;;;;;;;;;;;;;;;;;;;
2021/11/24 08:04:30;;;;;;;9.93;8.98;;;;;;;8.25;70.81;101231.50;6073761;23;20018;-71
2021/11/24 08:07:06;;;;;;;7.18;6.68;;;;;;;8.27;70.93;101227.47;6216767;23;20031;-72
2021/11/24 08:09:35;;;;;;;7.00;6.55;;;;;;;8.32;70.59;101221.31;6245344;23;20027;-73
2021/11/24 08:12:15;;;;;;;10.10;8.75;;;;;;;8.42;70.93;101243.41;6219265;23;20079;-74
2021/11/24 08:14:42;;;;;;;15.32;11.13;;;;;;;8.27;71.12;101219.31;6194165;23;20104;-73
2021/11/24 08:17:17;;;;;;;18.95;13.60;;;;;;;8.16;71.20;101207.31;6220345;23;20003;-76
2021/11/24 08:19:42;;;;;;;20.50;15.10;;;;;;;8.14;71.44;101214.88;6245262;22;20672;-73
2021/11/24 08:22:22;;;;;;;23.63;15.80;;;;;;;8.09;71.41;101216.59;6218991;23;20008;-73
2021/11/24 08:24:55;;;;;;;23.00;15.68;;;;;;;7.98;71.52;101210.06;6194989;23;20016;-73
2021/11/24 08:27:31;;;;;;;;;;;;;;;;;;;;;
2021/11/24 08:29:56;;;;;;;16.77;12.68;;;;;;;8.03;72.11;101226.53;6243910;23;20091;-74
2021/11/24 08:32:22;;;;;;;17.25;12.40;;;;;;;8.11;71.98;101242.56;6241336;23;20035;-74
2021/11/24 08:34:50;;;;;;;13.88;11.20;;;;;;;8.16;72.13;101240.00;6216671;23;20066;-73
2021/11/24 08:37:15;;;;;;;13.07;10.88;;;;;;;8.17;72.22;101236.19;6244843;23;20008;-73
2021/11/24 08:39:42;;;;;;;10.65;8.95;;;;;;;8.22;71.61;101238.25;6242571;23;20011;-73
2021/11/24 08:42:08;;;;;;;8.82;7.95;;;;;;;8.23;71.96;101228.19;6241719;23;20008;-73
2021/11/24 08:44:35;;;;;;;11.98;7.75;;;;;;;8.29;72.42;101222.63;6238568;23;20034;-73
2021/11/24 08:47:01;;;;;;;7.95;7.25;;;;;;;8.34;71.84;101216.50;6241962;23;20057;-74
2021/11/24 08:49:28;;;;;;;6.85;6.35;;;;;;;8.34;71.93;101214.59;6196376;23;20008;-73
2021/11/24 08:51:56;;;;;;;6.80;6.20;;;;;;;8.47;71.59;101223.66;6215335;23;20008;-73
2021/11/24 08:54:21;;;;;;;6.65;6.20;;;;;;;8.39;71.29;101200.25;6243647;23;20058;-74
2021/11/24 08:56:49;;;;;;;5.85;5.50;;;;;;;8.48;71.73;101209.78;6241901;23;20004;-74
2021/11/24 08:59:16;;;;;;;8.95;6.93;;;;;;;8.51;71.42;101214.81;6218288;23;20011;-73
2021/11/24 09:01:42;;;;;;;7.18;6.63;;;;;;;8.59;70.82;101210.09;6216590;23;20008;-74
2021/11/24 09:04:07;;;;;;;7.05;6.45;;;;;;;8.51;71.32;101193.00;6216775;23;20377;-74
2021/11/24 09:06:35;;;;;;;9.60;8.65;;;;;;;8.60;71.21;101195.38;6216734;23;20039;-74
2021/11/24 09:09:03;;;;;;;7.90;7.30;;;;;;;8.59;71.00;101191.00;6214959;23;20038;-73
2021/11/24 09:11:28;;;;;;;7.07;6.68;;;;;;;8.64;71.62;101197.38;6216763;23;20004;-73
2021/11/24 09:13:56;;;;;;;8.65;7.95;;;;;;;8.55;71.10;101177.00;6244781;22;20062;-74
2021/11/24 09:16:22;;;;;;;7.25;6.65;;;;;;;8.62;71.08;101182.34;6236719;23;20545;-73
2021/11/24 09:18:48;;;;;;;7.15;6.53;;;;;;;8.58;71.04;101173.78;6212752;23;20044;-73
2021/11/24 09:21:13;;;;;;;6.25;5.85;;;;;;;8.62;71.35;101171.44;6187040;23;20102;-74
2021/11/24 09:23:44;;;;;;;8.18;7.43;;;;;;;8.68;70.59;101175.94;6212327;23;20052;-75
2021/11/24 09:26:20;;;;;;;7.45;6.72;;;;;;;8.67;70.78;101157.91;6211748;23;20375;-74
2021/11/24 09:28:47;;;;;;;8.07;7.53;;;;;;;8.67;70.82;101174.28;6213641;23;20020;-74
2021/11/24 09:31:13;;;;;;;7.43;6.82;;;;;;;8.61;70.39;101164.31;6213036;23;20044;-74
2021/11/24 09:33:39;;;;;;;6.60;6.10;;;;;;;8.61;69.70;101164.31;6213993;23;20035;-74
2021/11/24 09:36:05;;;;;;;5.35;4.97;;;;;;;8.62;69.73;101171.44;6214580;23;20420;-73
2021/11/24 09:38:32;;;;;;;9.32;6.93;;;;;;;8.61;69.57;101161.59;6211434;23;20347;-72
2021/11/24 09:41:08;;;;;;;5.45;5.05;;;;;;;8.53;69.49;101141.78;6188364;23;20005;-74
2021/11/24 09:43:36;;;;;;;6.38;5.88;;;;;;;8.53;69.62;101140.97;6212281;23;20019;-73
2021/11/24 09:46:06;;;;;;;5.90;5.60;;;;;;;8.61;69.77;101158.88;6209782;23;20304;-74
2021/11/24 09:48:32;;;;;;;6.53;6.05;;;;;;;8.65;69.81;101165.50;6212163;23;20011;-74
2021/11/24 09:51:03;;;;;;;10.18;8.95;;;;;;;8.63;69.49;101162.19;6210805;23;20000;-74
2021/11/24 09:53:30;;;;;;;8.50;7.80;;;;;;;8.50;69.39;101158.63;6212113;23;20005;-73
2021/11/24 09:55:55;;;;;;;7.90;7.18;;;;;;;8.41;69.08;101154.53;6186055;23;20411;-75
2021/11/24 09:58:21;;;;;;;6.15;5.85;;;;;;;8.36;68.95;101146.22;6213959;23;20075;-75
2021/11/24 10:00:49;;;;;;;5.43;5.05;;;;;;;8.48;69.22;101166.19;6210950;23;20012;-73
2021/11/24 10:03:15;;;;;;;5.75;5.35;;;;;;;8.50;69.26;101166.78;6213731;23;20019;-74
2021/11/24 10:05:41;;;;;;;6.63;6.15;;;;;;;8.51;68.80;101160.28;6210593;23;20008;-74
2021/11/24 10:08:07;;;;;;;5.40;5.00;;;;;;;8.51;68.99;101143.94;6208882;23;20035;-73
2021/11/24 10:10:33;;;;;;;7.80;6.55;;;;;;;8.52;69.46;101145.56;6213060;23;20009;-75
2021/11/24 10:12:58;;;;;;;6.97;6.43;;;;;;;8.54;69.11;101148.91;6212157;23;20004;-73
2021/11/24 10:26:02;;;;;;;6.40;5.80;;;;;;;8.74;69.53;101136.81;6245237;23;20019;-74
2021/11/24 10:28:31;;;;;;;5.72;5.35;;;;;;;8.75;68.96;101138.50;6217604;23;20283;-73
2021/11/24 10:30:58;;;;;;;4.97;4.78;;;;;;;8.76;69.36;101123.81;6244661;23;20415;-73
2021/11/24 10:33:29;;;;;;;10.63;7.47;;;;;;;8.72;69.21;101117.16;6241070;23;20023;-73
2021/11/24 10:36:12;;;;;;;5.00;4.70;;;;;;;8.83;68.47;101127.22;6243297;23;20122;-73
2021/11/24 10:38:43;;;;;;;5.28;5.03;;;;;;;8.85;69.15;101118.81;6240926;23;20012;-74
2021/11/24 10:41:10;;;;;;;4.13;3.88;;;;;;;8.92;69.88;101116.78;6242948;23;20034;-73
2021/11/24 10:43:42;;;;;;;3.90;3.70;;;;;;;8.99;69.23;101113.94;6215800;23;20000;-74
2021/11/24 10:46:10;;;;;;;4.45;4.13;;;;;;;9.06;69.04;101101.81;6241148;23;20004;-75
2021/11/24 10:48:36;;;;;;;6.43;6.00;;;;;;;9.04;68.84;101092.25;6244553;23;20008;-75
2021/11/24 10:51:48;;;;;;;6.60;6.20;;;;;;;9.07;68.79;101097.22;6219226;23;20093;-73
2021/11/24 10:54:14;;;;;;;6.78;6.15;;;;;;;8.95;68.46;101083.59;6236789;23;20030;-74
2021/11/24 10:57:00;;;;;;;6.47;5.95;;;;;;;8.89;68.70;101088.09;6245056;23;20000;-71
2021/11/24 10:59:25;;;;;;;6.63;6.15;;;;;;;8.80;68.52;101075.88;6219378;23;20008;-72
2021/11/24 11:01:52;;;;;;;6.10;5.80;;;;;;;8.76;68.73;101074.72;6251713;23;20076;-74
2021/11/24 11:04:18;;;;;;;6.28;5.72;;;;;;;8.69;68.79;101057.66;6222108;23;20074;-74
2021/11/24 11:06:45;;;;;;;6.38;5.93;;;;;;;8.70;69.07;101059.28;6220534;23;20009;-74
2021/11/24 11:09:11;;;;;;;5.97;5.53;;;;;;;8.68;68.54;101043.16;6216165;23;20321;-73
2021/11/24 11:11:38;;;;;;;5.63;5.28;;;;;;;8.76;68.49;101036.53;6218205;23;20004;-73
2021/11/24 11:14:21;;;;;;;3.95;3.75;;;;;;;8.82;68.37;101019.22;6243015;23;20465;-75
2021/11/24 11:16:53;;;;;;;5.60;5.20;;;;;;;8.88;68.32;101017.44;6245030;23;20011;-73
2021/11/24 11:19:42;;;;;;;4.38;4.07;;;;;;;8.98;68.48;101016.78;6244509;22;20450;-74
2021/11/24 11:22:10;;;;;;;3.13;2.90;;;;;;;9.05;68.34;101006.56;6218545;23;20004;-74
2021/11/24 11:24:35;;;;;;;3.15;3.00;;;;;;;9.15;68.48;101001.31;6215705;23;20015;-74
2021/11/24 11:27:01;;;;;;;2.63;2.53;;;;;;;9.18;68.27;100989.91;6244192;23;20134;-74
2021/11/24 11:29:28;;;;;;;3.05;2.95;;;;;;;9.26;68.31;100989.53;6218193;23;20058;-73
2021/11/24 11:31:54;;;;;;;4.40;4.20;;;;;;;9.31;67.73;100985.25;6217611;23;20008;-74
2021/11/24 11:34:20;;;;;;;7.45;6.85;;;;;;;9.28;67.54;100977.56;6218290;23;20015;-73
2021/11/24 11:36:45;;;;;;;6.30;5.78;;;;;;;9.24;67.55;100972.59;6240411;23;20084;-73
2021/11/24 11:39:11;;;;;;;6.63;6.13;;;;;;;9.23;66.98;100968.19;6217904;23;20087;-74
2021/11/24 11:41:38;;;;;;;6.63;5.95;;;;;;;9.21;67.25;100962.16;6214421;23;20027;-74
2021/11/24 11:44:06;;;;;;;7.18;6.47;;;;;;;9.18;67.15;100951.72;6240653;23;20066;-73
2021/11/24 11:46:45;;;;;;;9.40;6.90;;;;;;;9.11;66.88;100939.31;6245299;23;20004;-74
2021/11/24 11:49:15;;;;;;;8.00;7.30;;;;;;;9.14;67.06;100936.94;6243637;23;20003;-74
2021/11/24 11:51:42;;;;;;;8.10;7.40;;;;;;;9.12;67.06;100922.69;6245358;23;20423;-75
2021/11/24 11:54:10;;;;;;;6.55;6.05;;;;;;;9.15;67.05;100919.47;6213102;23;20308;-74
2021/11/24 11:56:46;;;;;;;10.55;7.63;;;;;;;9.21;66.85;100918.50;6245804;23;20497;-75
2021/11/24 11:59:18;;;;;;;7.22;6.57;;;;;;;9.24;67.12;100920.75;6241435;23;20004;-74
2021/11/24 12:01:46;;;;;;;8.73;7.95;;;;;;;9.23;66.56;100921.00;6244432;23;20004;-75
2021/11/24 12:04:19;;;;;;;7.93;6.82;;;;;;;9.21;66.44;100904.88;6244702;23;20004;-73
2021/11/24 12:06:59;;;;;;;11.35;6.97;;;;;;;9.21;66.41;100906.75;6212941;23;20351;-73
2021/11/24 12:09:43;;;;;;;11.50;8.30;;;;;;;9.18;66.22;100899.06;6242672;23;20004;-74
2021/11/24 12:12:13;;;;;;;9.07;8.20;;;;;;;9.13;66.18;100893.53;6245044;23;20040;-73
2021/11/24 12:14:57;;;;;;;11.25;8.30;;;;;;;9.05;66.24;100895.56;6212599;23;20000;-74
2021/11/24 12:17:47;;;;;;;;;;;;;;;;;;;;;
2021/11/24 12:20:14;;;;;;;7.50;6.80;;;;;;;8.98;66.48;100885.84;6255834;22;20309;-73
2021/11/24 12:22:46;;;;;;;6.38;5.72;;;;;;;9.01;66.71;100885.38;6255796;23;20034;-73
2021/11/24 12:25:18;;;;;;;6.70;6.13;;;;;;;9.05;66.84;100875.63;6249584;23;20090;-74
2021/11/24 12:30:33;;;;;;;6.82;6.25;;;;;;;9.14;66.66;100874.19;6247503;23;20015;-74
2021/11/24 12:33:08;;;;;;;6.97;6.30;;;;;;;9.04;66.47;100852.97;6248062;23;20082;-73
2021/11/24 12:35:39;;;;;;;6.10;5.60;;;;;;;9.11;66.66;100850.09;6242817;23;20315;-74
2021/11/24 12:38:15;;;;;;;7.53;5.40;;;;;;;9.21;66.37;100858.47;6241986;23;20004;-74
2021/11/24 12:40:46;;;;;;;6.35;5.72;;;;;;;9.18;66.46;100844.47;6245671;23;20004;-74
2021/11/24 12:43:25;;;;;;;6.30;5.80;;;;;;;9.29;66.32;100848.19;6242206;23;20082;-74
2021/11/24 12:46:11;;;;;;;6.63;6.13;;;;;;;9.34;66.14;100851.03;6242901;23;20007;-75
2021/11/24 12:48:59;;;;;;;7.53;6.53;;;;;;;9.29;66.14;100837.28;6217459;23;20004;-73
2021/11/24 12:51:46;;;;;;;9.15;8.05;;;;;;;9.38;65.85;100841.28;6241488;23;20000;-74
2021/11/24 12:54:21;;;;;;;14.38;7.82;;;;;;;9.31;66.04;100838.69;6241233;23;20000;-74
2021/11/24 12:57:03;;;;;;;12.77;8.63;;;;;;;9.28;65.75;100835.66;6241257;23;20419;-73
2021/11/24 12:59:31;;;;;;;7.93;7.13;;;;;;;9.25;66.24;100826.88;6239155;23;20427;-74
2021/11/24 13:02:00;;;;;;;6.80;6.25;;;;;;;9.29;66.21;100823.63;6217121;23;20066;-74
2021/11/24 13:04:46;;;;;;;8.35;7.25;;;;;;;9.25;66.30;100815.13;6240549;23;20038;-73
2021/11/24 13:07:35;;;;;;;7.15;6.57;;;;;;;9.26;66.30;100806.69;6215786;23;20016;-74